createdAt,value
2022-08-09T00:00:04.365Z,10.91
2022-08-09T00:04:10.415Z,10.90
2022-08-09T00:06:33.359Z,10.88
2022-08-09T00:09:37.212Z,10.86
2022-08-09T00:12:39.357Z,10.85
2022-08-09T00:15:58.790Z,10.85
2022-08-09T00:19:03.843Z,10.84
2022-08-09T00:22:12.053Z,10.83
2022-08-09T00:25:15.518Z,10.81
2022-08-09T00:28:27.234Z,10.79
2022-08-09T00:31:58.095Z,10.78
2022-08-09T00:34:52.232Z,10.77
2022-08-09T00:37:54.780Z,10.76
2022-08-09T00:40:58.133Z,10.77
2022-08-09T00:44:26.383Z,10.74
2022-08-09T00:47:24.673Z,10.73
2022-08-09T00:50:27.290Z,10.70
2022-08-09T00:53:29.786Z,10.68
2022-08-09T00:56:31.772Z,10.66
2022-08-09T00:59:41.012Z,10.62
2022-08-09T01:03:02.780Z,10.63
2022-08-09T01:06:20.879Z,10.57
2022-08-09T01:09:54.061Z,10.51
2022-08-09T01:13:07.437Z,10.46
2022-08-09T01:16:11.231Z,10.43
2022-08-09T01:19:39.639Z,10.40
2022-08-09T01:22:56.015Z,10.39
2022-08-09T01:26:32.208Z,10.38
2022-08-09T01:30:28.708Z,10.39
2022-08-09T01:33:40.511Z,10.38
2022-08-09T01:36:45.131Z,10.37
2022-08-09T01:39:50.621Z,10.38
2022-08-09T01:42:55.714Z,10.38
2022-08-09T01:45:58.314Z,10.38
2022-08-09T01:49:10.744Z,10.36
2022-08-09T01:52:16.441Z,10.33
2022-08-09T01:55:19.477Z,10.33
2022-08-09T01:58:24.247Z,10.31
2022-08-09T02:01:30.586Z,10.29
2022-08-09T02:04:51.176Z,10.26
2022-08-09T02:08:35.637Z,10.23
2022-08-09T02:11:42.527Z,10.20
2022-08-09T02:14:51.682Z,10.18
2022-08-09T02:18:09.533Z,10.13
2022-08-09T02:21:22.063Z,10.08
2022-08-09T02:24:29.803Z,10.05
2022-08-09T02:27:43.476Z,9.99
2022-08-09T02:31:03.222Z,9.93
2022-08-09T02:34:40.222Z,9.90
2022-08-09T02:37:39.215Z,9.88
2022-08-09T02:40:48.187Z,9.84
2022-08-09T02:43:54.837Z,9.82
2022-08-09T02:47:01.629Z,9.84
2022-08-09T02:50:11.512Z,9.86
2022-08-09T02:53:26.460Z,9.87
2022-08-09T02:56:31.774Z,9.88
2022-08-09T02:59:37.029Z,9.91
2022-08-09T03:02:58.070Z,9.93
2022-08-09T03:06:02.777Z,9.95
2022-08-09T03:09:06.294Z,9.96
2022-08-09T03:12:11.291Z,9.97
2022-08-09T03:15:16.763Z,9.94
2022-08-09T03:18:19.205Z,9.95
2022-08-09T03:21:36.569Z,9.94
2022-08-09T03:24:51.753Z,9.95
2022-08-09T03:27:57.624Z,9.94
2022-08-09T03:31:09.895Z,9.95
2022-08-09T03:34:12.438Z,9.98
2022-08-09T03:37:55.835Z,9.98
2022-08-09T03:40:38.145Z,9.97
2022-08-09T03:44:03.472Z,9.97
2022-08-09T03:47:05.827Z,10.00
2022-08-09T03:50:11.081Z,10.02
2022-08-09T03:53:13.401Z,10.08
2022-08-09T03:56:17.840Z,10.13
2022-08-09T03:59:20.989Z,10.16
2022-08-09T04:02:31.226Z,10.27
2022-08-09T04:05:33.196Z,10.33
2022-08-09T04:08:42.359Z,10.38
2022-08-09T04:11:58.553Z,10.50
2022-08-09T04:15:17.277Z,10.61
2022-08-09T04:18:26.597Z,10.92
2022-08-09T04:21:30.016Z,12.12
2022-08-09T04:24:38.114Z,13.27
2022-08-09T04:27:42.234Z,13.68
2022-08-09T04:30:48.658Z,14.11
2022-08-09T04:33:56.852Z,14.69
2022-08-09T04:37:02.137Z,15.21
2022-08-09T04:40:06.584Z,15.01
2022-08-09T04:43:10.242Z,14.10
2022-08-09T04:46:37.563Z,13.50
2022-08-09T04:49:52.157Z,13.14
2022-08-09T04:52:56.727Z,12.79
2022-08-09T04:56:00.037Z,12.77
2022-08-09T04:59:07.781Z,12.83
2022-08-09T05:02:17.447Z,12.85
2022-08-09T05:05:32.471Z,12.87
2022-08-09T05:08:43.866Z,12.98
2022-08-09T05:11:49.748Z,12.99
2022-08-09T05:14:51.523Z,13.05
2022-08-09T05:18:42.603Z,13.17
2022-08-09T05:21:22.970Z,13.27
2022-08-09T05:24:26.538Z,13.33
2022-08-09T05:27:28.311Z,13.38
2022-08-09T05:30:34.445Z,13.57
2022-08-09T05:33:42.420Z,13.88
2022-08-09T05:36:47.088Z,14.04
2022-08-09T05:39:49.580Z,14.31
2022-08-09T05:42:52.182Z,14.39
2022-08-09T05:45:56.721Z,14.59
2022-08-09T05:48:59.377Z,14.56
2022-08-09T05:52:03.380Z,14.84
2022-08-09T05:55:08.919Z,14.99
2022-08-09T05:58:22.267Z,15.05
2022-08-09T06:01:34.004Z,15.15
2022-08-09T06:04:46.124Z,15.45
2022-08-09T06:08:04.986Z,15.52
2022-08-09T06:11:16.722Z,15.62
2022-08-09T06:14:19.743Z,15.80
2022-08-09T06:17:21.838Z,15.58
2022-08-09T06:20:23.623Z,15.90
2022-08-09T06:23:58.570Z,15.97
2022-08-09T06:26:50.327Z,16.21
2022-08-09T06:30:04.680Z,16.21
2022-08-09T06:33:29.962Z,16.30
2022-08-09T06:36:33.931Z,16.41
2022-08-09T06:39:49.221Z,16.58
2022-08-09T06:42:58.226Z,16.58
2022-08-09T06:46:07.876Z,16.52
2022-08-09T06:49:16.031Z,16.65
2022-08-09T06:52:18.080Z,16.79
2022-08-09T06:55:22.907Z,16.91
2022-08-09T06:58:40.909Z,17.24
2022-08-09T07:01:54.824Z,17.31
2022-08-09T07:05:02.338Z,17.72
2022-08-09T07:08:04.423Z,17.60
2022-08-09T07:11:06.892Z,17.67
2022-08-09T07:14:08.912Z,17.75
2022-08-09T07:17:10.713Z,17.70
2022-08-09T07:20:14.748Z,17.77
2022-08-09T07:23:19.582Z,17.96
2022-08-09T07:26:21.737Z,17.83
2022-08-09T07:29:25.941Z,18.14
2022-08-09T07:32:34.559Z,18.23
2022-08-09T07:35:53.139Z,18.04
2022-08-09T07:39:00.850Z,18.35
2022-08-09T07:42:05.273Z,18.28
2022-08-09T07:45:14.986Z,18.52
2022-08-09T07:48:30.539Z,18.42
2022-08-09T07:52:05.786Z,18.45
2022-08-09T07:54:55.274Z,18.40
2022-08-09T07:57:59.292Z,18.68
2022-08-09T08:01:06.081Z,18.85
2022-08-09T08:04:10.615Z,19.21
2022-08-09T08:08:06.674Z,19.38
2022-08-09T08:10:34.750Z,19.43
2022-08-09T08:13:39.899Z,19.81
2022-08-09T08:17:07.681Z,19.59
2022-08-09T08:20:12.587Z,19.74
2022-08-09T08:23:17.811Z,19.59
2022-08-09T08:26:26.632Z,19.33
2022-08-09T08:29:48.774Z,19.48
2022-08-09T08:32:53.861Z,20.02
2022-08-09T08:35:59.816Z,20.02
2022-08-09T08:39:03.819Z,20.26
2022-08-09T08:42:06.448Z,20.08
2022-08-09T08:45:11.771Z,20.09
2022-08-09T08:48:19.396Z,20.16
2022-08-09T08:51:25.102Z,19.81
2022-08-09T08:54:29.949Z,20.47
2022-08-09T08:57:35.505Z,20.46
2022-08-09T09:00:38.840Z,20.42
2022-08-09T09:03:42.333Z,20.90
2022-08-09T09:06:48.381Z,20.98
2022-08-09T09:10:02.862Z,20.62
2022-08-09T09:13:09.468Z,20.56
2022-08-09T09:16:12.000Z,20.51
2022-08-09T09:19:37.004Z,20.79
2022-08-09T09:22:57.734Z,21.19
2022-08-09T09:26:12.504Z,21.36
2022-08-09T09:29:17.374Z,21.61
2022-08-09T09:32:35.193Z,21.42
2022-08-09T09:36:00.829Z,21.54
2022-08-09T09:39:09.969Z,21.61
2022-08-09T09:42:30.797Z,21.39
2022-08-09T09:49:12.134Z,21.74
2022-08-09T09:52:16.414Z,22.38
2022-08-09T09:56:04.572Z,22.57
2022-08-09T09:59:09.429Z,22.11
2022-08-09T10:02:11.964Z,21.84
2022-08-09T10:05:13.728Z,22.10
2022-08-09T10:08:28.477Z,22.13
2022-08-09T10:11:59.624Z,22.28
2022-08-09T10:15:25.665Z,23.01
2022-08-09T10:18:51.301Z,23.07
2022-08-09T10:21:56.469Z,22.82
2022-08-09T10:24:59.743Z,22.82
2022-08-09T10:28:08.936Z,23.11
2022-08-09T10:34:37.019Z,23.52
2022-08-09T10:37:39.365Z,23.57
2022-08-09T10:40:44.760Z,24.00
2022-08-09T10:43:59.597Z,23.90
2022-08-09T10:48:19.546Z,23.82
2022-08-09T10:51:13.669Z,23.88
2022-08-09T10:54:16.159Z,23.39
2022-08-09T10:57:18.016Z,23.94
2022-08-09T11:00:29.602Z,24.06
2022-08-09T11:03:49.691Z,23.57
2022-08-09T11:07:18.585Z,24.17
2022-08-09T11:10:54.792Z,24.44
2022-08-09T11:14:32.405Z,23.54
2022-08-09T11:17:42.030Z,23.90
2022-08-09T11:20:47.683Z,24.17
2022-08-09T11:24:04.205Z,24.48
2022-08-09T11:28:04.520Z,24.95
2022-08-09T11:31:43.533Z,24.39
2022-08-09T11:34:52.998Z,24.46
2022-08-09T11:37:58.294Z,24.45
2022-08-09T11:41:13.663Z,24.96
2022-08-09T11:44:15.829Z,24.45
2022-08-09T11:47:18.251Z,25.13
2022-08-09T11:50:54.842Z,24.47
2022-08-09T11:53:58.080Z,24.10
2022-08-09T11:57:47.731Z,24.29
2022-08-09T12:01:08.975Z,24.19
2022-08-09T12:04:23.533Z,24.75
2022-08-09T12:07:41.330Z,24.87
2022-08-09T12:10:48.371Z,24.83
2022-08-09T12:14:07.755Z,24.94
2022-08-09T12:17:28.210Z,24.82
2022-08-09T12:20:43.679Z,24.76
2022-08-09T12:24:06.374Z,24.18
2022-08-09T12:29:14.482Z,24.82
2022-08-09T12:30:43.699Z,24.71
2022-08-09T12:33:58.988Z,25.10
2022-08-09T12:37:21.614Z,25.17
2022-08-09T12:40:27.426Z,25.19
2022-08-09T12:44:05.283Z,25.31
2022-08-09T12:46:52.220Z,25.13
2022-08-09T12:50:12.977Z,25.56
2022-08-09T12:53:32.177Z,25.72
2022-08-09T12:56:51.019Z,25.84
2022-08-09T13:00:17.583Z,26.13
2022-08-09T13:03:54.050Z,24.96
2022-08-09T13:06:50.426Z,25.20
2022-08-09T13:10:04.684Z,25.03
2022-08-09T13:13:09.818Z,24.78
2022-08-09T13:16:17.599Z,24.65
2022-08-09T13:20:09.679Z,25.21
2022-08-09T13:24:01.826Z,25.20
2022-08-09T13:26:40.992Z,24.93
2022-08-09T13:30:04.242Z,24.85
2022-08-09T13:33:24.860Z,25.38
2022-08-09T13:36:46.688Z,25.58
2022-08-09T13:41:54.353Z,25.20
2022-08-09T13:43:10.599Z,25.32
2022-08-09T13:47:16.860Z,25.23
2022-08-09T13:49:57.606Z,25.35
2022-08-09T13:53:02.346Z,25.35
2022-08-09T13:56:05.569Z,24.89
2022-08-09T13:59:07.398Z,24.94
2022-08-09T14:02:09.971Z,25.23
2022-08-09T14:05:13.493Z,25.12
2022-08-09T14:08:33.852Z,24.80
2022-08-09T14:11:47.174Z,24.88
2022-08-09T14:14:53.688Z,24.95
2022-08-09T14:18:18.980Z,24.99
2022-08-09T14:21:23.095Z,24.85
2022-08-09T14:24:32.569Z,25.01
2022-08-09T14:27:37.130Z,25.15
2022-08-09T14:30:57.362Z,25.09
2022-08-09T14:33:59.319Z,25.11
2022-08-09T14:37:08.198Z,25.21
2022-08-09T14:40:10.719Z,25.05
2022-08-09T14:43:18.507Z,25.01
2022-08-09T14:46:54.602Z,24.92
2022-08-09T14:50:01.438Z,25.25
2022-08-09T14:53:12.159Z,25.53
2022-08-09T14:56:14.863Z,25.13
2022-08-09T14:59:16.864Z,24.75
2022-08-09T15:02:18.724Z,24.60
2022-08-09T15:05:22.319Z,24.23
2022-08-09T15:08:24.465Z,24.49
2022-08-09T15:11:26.351Z,24.64
2022-08-09T15:14:34.048Z,24.99
2022-08-09T15:17:41.785Z,24.97
2022-08-09T15:21:56.201Z,24.62
2022-08-09T15:24:15.290Z,24.53
2022-08-09T15:27:21.337Z,24.41
2022-08-09T15:30:55.355Z,24.55
2022-08-09T15:34:32.803Z,24.44
2022-08-09T15:37:37.076Z,24.17
2022-08-09T15:40:43.669Z,23.88
2022-08-09T15:43:46.059Z,24.17
2022-08-09T15:46:48.503Z,23.94
2022-08-09T15:50:03.393Z,24.20
2022-08-09T15:54:02.037Z,24.29
2022-08-09T15:56:31.050Z,23.87
2022-08-09T15:59:37.105Z,24.20
2022-08-09T16:02:39.701Z,24.09
2022-08-09T16:05:53.464Z,24.35
2022-08-09T16:09:00.862Z,24.24
2022-08-09T16:12:05.450Z,24.20
2022-08-09T16:16:04.697Z,24.04
2022-08-09T16:18:35.469Z,24.00
2022-08-09T16:21:38.260Z,24.27
2022-08-09T16:24:40.028Z,23.90
2022-08-09T16:27:47.858Z,23.65
2022-08-09T16:30:58.439Z,23.74
2022-08-09T16:34:02.610Z,23.57
2022-08-09T16:37:07.836Z,23.74
2022-08-09T16:40:11.292Z,23.67
2022-08-09T16:43:14.420Z,23.70
2022-08-09T16:46:21.401Z,23.72
2022-08-09T16:50:28.346Z,23.51
2022-08-09T16:52:45.223Z,23.19
2022-08-09T16:55:59.813Z,23.09
2022-08-09T16:59:06.465Z,23.06
2022-08-09T17:02:13.821Z,23.16
2022-08-09T17:05:19.925Z,23.08
2022-08-09T17:08:44.476Z,22.90
2022-08-09T17:11:44.475Z,22.66
2022-08-09T17:14:57.217Z,22.58
2022-08-09T17:18:00.659Z,22.79
2022-08-09T17:21:04.119Z,22.94
2022-08-09T17:24:28.348Z,24.09
2022-08-09T17:27:29.004Z,24.77
2022-08-09T17:30:31.655Z,24.34
2022-08-09T17:33:37.640Z,24.36
2022-08-09T17:36:39.998Z,24.14
2022-08-09T17:39:55.995Z,24.09
2022-08-09T17:42:59.493Z,23.77
2022-08-09T17:46:09.081Z,23.24
2022-08-09T17:49:11.547Z,22.62
2022-08-09T17:52:22.200Z,22.34
2022-08-09T17:55:47.070Z,22.07
2022-08-09T17:58:51.438Z,21.76
2022-08-09T18:02:08.080Z,21.58
2022-08-09T18:05:15.162Z,21.32
2022-08-09T18:08:16.960Z,21.09
2022-08-09T18:11:23.742Z,20.81
2022-08-09T18:14:26.520Z,20.75
2022-08-09T18:18:01.398Z,20.52
2022-08-09T18:20:54.895Z,20.40
2022-08-09T18:24:11.323Z,20.30
2022-08-09T18:27:18.781Z,20.02
2022-08-09T18:30:49.629Z,20.02
2022-08-09T18:33:53.697Z,19.92
2022-08-09T18:36:55.715Z,19.82
2022-08-09T18:39:57.794Z,19.62
2022-08-09T18:42:59.639Z,19.66
2022-08-09T18:46:51.088Z,19.55
2022-08-09T18:49:24.721Z,19.55
2022-08-09T18:52:34.486Z,19.48
2022-08-09T18:55:56.614Z,19.34
2022-08-09T18:58:58.900Z,19.20
2022-08-09T19:02:03.637Z,19.18
2022-08-09T19:05:20.372Z,19.00
2022-08-09T19:08:29.364Z,18.96
2022-08-09T19:11:37.802Z,18.91
2022-08-09T19:14:40.237Z,18.83
2022-08-09T19:17:54.805Z,18.74
2022-08-09T19:20:58.751Z,18.55
2022-08-09T19:24:35.953Z,18.45
2022-08-09T19:27:24.156Z,18.32
2022-08-09T19:30:32.450Z,18.20
2022-08-09T19:33:35.008Z,18.06
2022-08-09T19:36:36.830Z,17.97
2022-08-09T19:40:03.379Z,17.90
2022-08-09T19:43:00.359Z,17.83
2022-08-09T19:46:02.934Z,17.76
2022-08-09T19:50:08.711Z,17.69
2022-08-09T19:52:28.211Z,17.57
2022-08-09T19:56:03.261Z,17.50
2022-08-09T19:58:56.382Z,17.40
2022-08-09T20:04:07.587Z,17.30
2022-08-09T20:05:45.999Z,17.16
2022-08-09T20:08:49.551Z,17.04
2022-08-09T20:11:53.282Z,16.96
2022-08-09T20:14:55.919Z,16.90
2022-08-09T20:17:58.635Z,16.83
2022-08-09T20:21:01.904Z,16.76
2022-08-09T20:24:04.384Z,16.67
2022-08-09T20:27:08.167Z,16.62
2022-08-09T20:30:12.053Z,16.62
2022-08-09T20:33:14.481Z,16.51
2022-08-09T20:36:20.206Z,16.52
2022-08-09T20:40:13.725Z,16.43
2022-08-09T20:42:46.543Z,16.38
2022-08-09T20:46:33.825Z,16.36
2022-08-09T20:49:23.349Z,16.32
2022-08-09T20:52:25.239Z,16.23
2022-08-09T20:55:27.963Z,16.16
2022-08-09T20:58:32.668Z,16.12
2022-08-09T21:01:50.077Z,16.08
2022-08-09T21:05:51.485Z,16.08
2022-08-09T21:08:16.017Z,16.08
2022-08-09T21:14:46.146Z,16.03
2022-08-09T21:18:24.565Z,15.96
2022-08-09T21:21:17.273Z,15.88
2022-08-09T21:24:28.866Z,15.85
2022-08-09T21:27:51.633Z,15.78
2022-08-09T21:30:54.908Z,15.75
2022-08-09T21:33:57.256Z,15.68
2022-08-09T21:36:59.054Z,15.59
2022-08-09T21:40:00.835Z,15.55
2022-08-09T21:43:06.274Z,15.51
2022-08-09T21:46:08.184Z,15.49
2022-08-09T21:49:13.003Z,15.43
2022-08-09T21:52:20.254Z,15.37
2022-08-09T21:55:22.592Z,15.34
2022-08-09T21:58:31.091Z,15.29
2022-08-09T22:01:59.465Z,15.25
2022-08-09T22:04:57.517Z,15.18
2022-08-09T22:08:00.429Z,15.14
2022-08-09T22:12:06.187Z,15.10
2022-08-09T22:14:24.368Z,15.07
2022-08-09T22:17:31.824Z,15.02
2022-08-09T22:20:34.329Z,14.95
2022-08-09T22:23:58.895Z,14.88
2022-08-09T22:26:57.976Z,14.81
2022-08-09T22:29:59.859Z,14.76
2022-08-09T22:33:02.188Z,14.71
2022-08-09T22:36:11.118Z,14.65
2022-08-09T22:39:20.778Z,14.61
2022-08-09T22:42:38.636Z,14.38
2022-08-09T22:48:11.847Z,14.16
2022-08-09T22:49:10.109Z,14.14
2022-08-09T22:52:12.340Z,14.12
2022-08-09T22:55:21.797Z,14.09
2022-08-09T22:58:33.168Z,14.04
2022-08-09T23:01:35.826Z,14.03
2022-08-09T23:04:40.535Z,13.98
2022-08-09T23:08:21.726Z,13.93
2022-08-09T23:11:22.741Z,13.87
2022-08-09T23:14:37.533Z,13.87
2022-08-09T23:17:43.830Z,13.86
2022-08-09T23:20:46.291Z,13.82
2022-08-09T23:23:58.884Z,13.76
2022-08-09T23:27:07.637Z,13.61
2022-08-09T23:30:09.903Z,13.60
2022-08-09T23:33:11.699Z,13.53
2022-08-09T23:36:13.743Z,13.46
2022-08-09T23:39:15.496Z,13.45
2022-08-09T23:42:17.416Z,13.41
2022-08-09T23:45:36.974Z,13.35
2022-08-09T23:48:40.322Z,13.31
2022-08-09T23:51:42.275Z,13.26
2022-08-09T23:54:45.372Z,13.29
2022-08-09T23:58:08.014Z,13.31
